Time;durP1;ratioP1;P1;durP2;ratioP2;P2;SDS_P1;SDS_P2;PMS_P1;PMS_P2;Temp;Humidity;BMP_temperature;BMP_pressure;BME280_temperature;BME280_humidity;BME280_pressure;Samples;Min_cycle;Max_cycle;Signal;HPM_P1;HPM_P2
2023/05/06 00:00:24;;;;;;;;;15.00;14.00;;;;;16.28;83.85;100760.66;5074607;28;50173;-70
2023/05/06 00:02:50;;;;;;;;;10.75;10.75;;;;;16.26;83.41;100761.72;5073898;28;45453;-75
2023/05/06 00:05:17;;;;;;;;;9.50;9.25;;;;;16.20;83.65;100747.00;5074910;28;45539;-72
2023/05/06 00:07:43;;;;;;;;;6.25;6.25;;;;;16.24;83.63;100758.31;5074628;28;45288;-75
2023/05/06 00:10:08;;;;;;;;;6.25;6.25;;;;;16.25;83.15;100757.34;5074150;28;45347;-78
2023/05/06 00:12:34;;;;;;;;;6.00;6.00;;;;;16.20;83.29;100753.19;5074708;28;45275;-75
2023/05/06 00:14:59;;;;;;;;;6.00;6.00;;;;;16.21;83.28;100762.84;5072755;28;46358;-77
2023/05/06 00:17:24;;;;;;;;;7.00;7.00;;;;;16.19;83.02;100756.78;5074213;28;46174;-76
2023/05/06 00:19:51;;;;;;;;;8.25;8.25;;;;;16.18;82.31;100762.16;5074288;28;45287;-77
2023/05/06 00:22:16;;;;;;;;;4.00;4.00;;;;;16.13;82.20;100754.50;5074562;28;45324;-73
2023/05/06 00:24:41;;;;;;;;;5.00;5.00;;;;;16.06;82.34;100743.41;5074729;28;45270;-76
2023/05/06 00:27:07;;;;;;;;;6.50;6.50;;;;;16.03;82.23;100748.88;5074820;27;46696;-75
2023/05/06 00:29:33;;;;;;;;;6.25;6.25;;;;;16.01;82.69;100749.94;5074514;27;45399;-75
2023/05/06 00:31:58;;;;;;;;;6.50;6.50;;;;;15.94;82.77;100741.50;5076965;28;45457;-76
2023/05/06 00:34:23;;;;;;;;;5.25;5.25;;;;;15.94;82.90;100740.66;5078310;28;45375;-77
2023/05/06 00:36:49;;;;;;;;;7.50;7.50;;;;;15.95;82.91;100742.34;5077749;28;47078;-75
2023/05/06 00:39:15;;;;;;;;;5.75;5.75;;;;;15.89;82.63;100741.75;5077824;27;45373;-77
2023/05/06 00:41:40;;;;;;;;;3.50;3.50;;;;;15.87;82.33;100738.34;5077996;27;45338;-68
2023/05/06 00:44:05;;;;;;;;;4.00;4.00;;;;;15.86;82.66;100741.06;5078331;27;45295;-76
2023/05/06 00:46:31;;;;;;;;;5.00;5.00;;;;;15.81;83.14;100740.50;5077703;28;46010;-74
2023/05/06 00:48:57;;;;;;;;;5.00;5.00;;;;;15.75;82.89;100736.41;5077869;27;45318;-75
2023/05/06 00:51:22;;;;;;;;;5.00;5.00;;;;;15.77;82.96;100739.81;5077920;27;45208;-74
2023/05/06 00:53:48;;;;;;;;;4.25;4.25;;;;;15.73;83.24;100739.16;5077622;27;45319;-76
2023/05/06 00:56:16;;;;;;;;;7.00;7.00;;;;;15.71;83.09;100729.56;5077309;28;45465;-75
2023/05/06 00:58:43;;;;;;;;;2.00;2.00;;;;;15.72;82.96;100736.56;5077403;28;45288;-75
2023/05/06 01:01:08;;;;;;;;;4.00;4.00;;;;;15.72;83.47;100739.22;5077860;28;45470;-76
2023/05/06 01:03:33;;;;;;;;;5.00;5.00;;;;;15.71;83.43;100742.81;5077665;27;45375;-77
2023/05/06 01:06:02;;;;;;;;;3.00;3.00;;;;;15.69;83.00;100744.72;5077493;27;45368;-77
2023/05/06 01:08:45;;;;;;;;;3.00;3.00;;;;;15.60;83.27;100731.06;5077553;28;45236;-76
2023/05/06 01:11:15;;;;;;;;;4.25;4.25;;;;;15.65;83.65;100735.22;5077709;28;45375;-73
2023/05/06 01:14:05;;;;;;;;;5.00;5.00;;;;;15.63;84.09;100727.38;5077437;28;45434;-71
2023/05/06 01:16:35;;;;;;;;;4.50;4.50;;;;;15.62;84.32;100726.50;5077018;28;46558;-72
2023/05/06 01:19:01;;;;;;;;;6.50;6.50;;;;;15.67;84.40;100734.22;5077312;27;45342;-70
2023/05/06 01:21:33;;;;;;;;;5.75;5.75;;;;;15.67;84.50;100733.34;5077239;28;45178;-71
2023/05/06 01:23:59;;;;;;;;;6.00;6.00;;;;;15.65;85.01;100727.28;5077645;28;45244;-72
2023/05/06 01:26:25;;;;;;;;;8.25;8.25;;;;;15.61;85.06;100718.66;5077767;28;45311;-71
2023/05/06 01:28:51;;;;;;;;;8.50;7.75;;;;;15.64;85.21;100723.78;5078443;28;45469;-72
2023/05/06 01:31:23;;;;;;;;;6.50;6.50;;;;;15.67;84.78;100730.69;5077535;27;45279;-74
2023/05/06 01:34:08;;;;;;;;;10.00;10.00;;;;;15.66;85.51;100726.34;5077474;28;45408;-72
2023/05/06 01:36:52;;;;;;;;;9.75;9.75;;;;;15.63;85.89;100720.28;5076818;28;46148;-70
2023/05/06 01:39:24;;;;;;;;;7.00;7.00;;;;;15.61;85.85;100714.19;5075352;28;45397;-72
2023/05/06 01:41:51;;;;;;;;;5.25;5.25;;;;;15.66;86.05;100721.03;5076588;27;45338;-73
2023/05/06 01:44:21;;;;;;;;;8.75;8.75;;;;;15.67;86.13;100723.59;5077229;28;45595;-71
2023/05/06 01:46:48;;;;;;;;;10.00;10.00;;;;;15.67;86.51;100720.09;5076927;28;46257;-73
2023/05/06 01:49:15;;;;;;;;;6.75;6.75;;;;;15.69;86.41;100716.41;5058589;28;45352;-75
2023/05/06 01:51:46;;;;;;;;;6.25;6.25;;;;;15.67;86.52;100712.13;5077442;28;45434;-75
2023/05/06 01:54:12;;;;;;;;;8.00;8.00;;;;;15.65;86.79;100714.88;5078039;28;45401;-74
2023/05/06 01:56:37;;;;;;;;;5.00;5.00;;;;;15.72;86.79;100720.66;5077065;27;46025;-67
2023/05/06 01:59:02;;;;;;;;;5.50;5.50;;;;;15.71;86.81;100711.88;5077089;28;45909;-75
2023/05/06 02:01:28;;;;;;;;;5.00;5.00;;;;;15.73;86.70;100714.41;5076578;28;45420;-76
2023/05/06 02:03:53;;;;;;;;;6.00;6.00;;;;;15.73;86.73;100702.03;5076697;28;45354;-75
2023/05/06 02:06:18;;;;;;;;;7.00;7.00;;;;;15.69;86.71;100704.94;5076414;28;45542;-75
2023/05/06 02:08:44;;;;;;;;;16.75;16.25;;;;;15.70;86.82;100702.22;5075900;27;46605;-72
2023/05/06 02:11:09;;;;;;;;;5.25;5.25;;;;;15.73;86.72;100709.97;5058434;28;45335;-70
2023/05/06 02:13:34;;;;;;;;;6.75;6.75;;;;;15.71;87.24;100700.41;5076169;28;45384;-72
2023/05/06 02:16:01;;;;;;;;;8.00;8.00;;;;;15.71;87.14;100705.69;5075997;28;45374;-71
2023/05/06 02:18:26;;;;;;;;;8.00;8.00;;;;;15.70;87.62;100704.88;5057706;28;45426;-72
2023/05/06 02:20:51;;;;;;;;;5.75;5.75;;;;;15.72;87.88;100716.22;5075972;28;45329;-71
2023/05/06 02:23:17;;;;;;;;;10.00;8.75;;;;;15.69;87.99;100711.09;5076127;27;45501;-71
2023/05/06 02:25:42;;;;;;;;;13.75;13.75;;;;;15.70;88.05;100717.25;5076169;28;46519;-72
2023/05/06 02:28:07;;;;;;;;;7.50;7.50;;;;;15.66;88.38;100711.28;5076036;27;45342;-71
2023/05/06 02:30:33;;;;;;;;;9.00;9.00;;;;;15.65;88.23;100716.66;5076021;27;45307;-70
2023/05/06 02:32:58;;;;;;;;;10.25;10.25;;;;;15.63;88.47;100712.31;5076149;27;45603;-71
2023/05/06 02:35:24;;;;;;;;;10.00;10.00;;;;;15.60;88.58;100707.19;5075471;28;46583;-76
2023/05/06 02:37:49;;;;;;;;;7.25;7.25;;;;;15.62;88.98;100712.41;5075744;28;45275;-74
2023/05/06 02:40:15;;;;;;;;;8.00;8.00;;;;;15.63;88.72;100712.31;5075967;27;45344;-69
2023/05/06 02:42:40;;;;;;;;;9.25;9.25;;;;;15.62;89.12;100713.25;5076560;28;45267;-75
2023/05/06 02:45:06;;;;;;;;;11.00;11.00;;;;;15.65;89.08;100716.66;5075384;27;60013;-78
2023/05/06 02:47:31;;;;;;;;;7.00;7.00;;;;;15.65;88.79;100719.31;5075885;27;45271;-75
2023/05/06 02:49:57;;;;;;;;;8.00;8.00;;;;;15.62;89.08;100713.25;5075850;28;45734;-73
2023/05/06 02:52:22;;;;;;;;;6.00;6.00;;;;;15.58;88.67;100708.25;5075583;28;47264;-71
2023/05/06 02:54:49;;;;;;;;;8.75;8.75;;;;;15.59;89.04;100708.13;5056281;27;47039;-71
2023/05/06 02:57:14;;;;;;;;;8.50;8.50;;;;;15.62;89.07;100707.94;5075999;27;45343;-69
2023/05/06 02:59:40;;;;;;;;;7.25;7.25;;;;;15.62;89.22;100700.00;5075477;27;45383;-72
2023/05/06 03:02:05;;;;;;;;;8.25;8.25;;;;;15.65;89.56;100698.09;5075426;28;45760;-74
2023/05/06 03:04:30;;;;;;;;;7.00;7.00;;;;;15.66;89.33;100697.16;5075425;28;45631;-75
2023/05/06 03:06:56;;;;;;;;;10.00;10.00;;;;;15.68;89.13;100698.78;5075555;28;45372;-73
2023/05/06 03:09:21;;;;;;;;;5.75;5.75;;;;;15.66;89.06;100697.16;5075447;27;45418;-71
2023/05/06 03:11:47;;;;;;;;;9.00;9.00;;;;;15.63;88.94;100685.78;5075866;27;45463;-72
2023/05/06 03:14:12;;;;;;;;;8.25;8.25;;;;;15.66;89.33;100692.72;5075356;28;46533;-73
2023/05/06 03:16:37;;;;;;;;;9.00;9.00;;;;;15.65;89.37;100685.72;5075235;28;46768;-75
2023/05/06 03:19:02;;;;;;;;;7.25;7.25;;;;;15.68;89.23;100689.97;5075275;28;47325;-72
2023/05/06 03:21:28;;;;;;;;;8.00;8.00;;;;;15.65;89.18;100690.16;5075676;27;45318;-77
2023/05/06 03:23:54;;;;;;;;;7.75;7.75;;;;;15.67;89.36;100694.44;5075380;27;46761;-75
2023/05/06 03:26:20;;;;;;;;;9.00;9.00;;;;;15.67;89.16;100690.91;5075450;27;45442;-76
2023/05/06 03:28:45;;;;;;;;;7.75;7.75;;;;;15.62;89.39;100685.91;5075603;27;45267;-77
2023/05/06 03:31:11;;;;;;;;;8.00;8.00;;;;;15.59;89.32;100678.97;5075584;27;45263;-76
2023/05/06 03:33:36;;;;;;;;;15.75;15.75;;;;;15.58;89.52;100687.03;5075037;28;46131;-76
2023/05/06 03:36:02;;;;;;;;;9.00;9.00;;;;;15.56;89.64;100679.16;5075436;28;45205;-76
2023/05/06 03:38:28;;;;;;;;;7.50;7.00;;;;;15.54;89.72;100678.41;5079521;27;45393;-76
2023/05/06 03:40:53;;;;;;;;;9.25;8.50;;;;;15.58;89.73;100689.69;5063893;28;45560;-76
2023/05/06 03:43:18;;;;;;;;;7.00;7.00;;;;;15.54;90.07;100685.50;5083305;28;48262;-80
2023/05/06 03:45:44;;;;;;;;;9.00;9.00;;;;;15.56;90.14;100695.06;5083549;28;45319;-80
2023/05/06 03:48:10;;;;;;;;;9.25;8.75;;;;;15.52;90.54;100682.94;5078963;28;45290;-79
2023/05/06 03:50:35;;;;;;;;;12.00;12.00;;;;;15.46;90.35;100672.69;5076136;28;45406;-80
2023/05/06 03:53:01;;;;;;;;;7.50;7.25;;;;;15.52;90.54;100688.25;5075946;27;46215;-76
2023/05/06 03:55:26;;;;;;;;;7.75;7.75;;;;;15.49;91.12;100683.13;5076490;27;45476;-75
2023/05/06 03:57:51;;;;;;;;;8.75;8.75;;;;;15.47;90.98;100671.75;5075540;28;45372;-75
2023/05/06 04:00:17;;;;;;;;;8.25;8.25;;;;;15.50;90.84;100684.00;5075341;27;45360;-79
2023/05/06 04:02:42;;;;;;;;;6.00;6.00;;;;;15.50;91.02;100681.34;5056501;28;47422;-73
2023/05/06 04:05:08;;;;;;;;;4.00;4.00;;;;;15.52;91.13;100696.19;5074694;28;45288;-74
2023/05/06 04:07:33;;;;;;;;;8.00;8.00;;;;;15.44;90.82;100678.09;5074453;27;45457;-74
2023/05/06 04:09:59;;;;;;;;;6.25;6.25;;;;;15.49;91.18;100691.06;5075007;28;45245;-72
2023/05/06 04:12:24;;;;;;;;;7.00;7.00;;;;;15.44;91.32;100677.25;5074558;28;46506;-74
2023/05/06 04:14:50;;;;;;;;;10.25;10.25;;;;;15.48;91.13;100682.28;5074211;28;45427;-72
2023/05/06 04:17:15;;;;;;;;;8.50;8.50;;;;;15.49;91.15;100683.13;5074968;28;45360;-72
2023/05/06 04:19:40;;;;;;;;;8.00;8.00;;;;;15.48;91.39;100676.97;5074818;28;45644;-72
2023/05/06 04:22:06;;;;;;;;;10.25;10.25;;;;;15.46;91.27;100676.22;5074326;28;46447;-72
2023/05/06 04:24:32;;;;;;;;;8.25;8.25;;;;;15.48;91.30;100679.63;5056187;28;45441;-72
2023/05/06 04:26:58;;;;;;;;;9.25;8.00;;;;;15.51;91.36;100675.09;5074577;27;45397;-74
2023/05/06 04:29:24;;;;;;;;;10.00;10.00;;;;;15.52;91.50;100672.34;5074449;28;45355;-73
2023/05/06 04:31:50;;;;;;;;;9.00;9.00;;;;;15.52;91.38;100671.50;5074795;28;45356;-75
2023/05/06 04:34:15;;;;;;;;;8.25;8.25;;;;;15.52;90.69;100672.34;5074647;27;45378;-73
2023/05/06 04:36:41;;;;;;;;;8.50;8.50;;;;;15.53;91.66;100668.75;5074564;28;45418;-73
2023/05/06 04:39:07;;;;;;;;;7.00;7.00;;;;;15.58;91.06;100671.97;5074404;28;45450;-74
2023/05/06 04:41:32;;;;;;;;;8.00;8.00;;;;;15.54;91.34;100664.31;5073547;27;55069;-74
2023/05/06 04:43:58;;;;;;;;;10.00;10.00;;;;;15.60;91.12;100664.78;5055930;28;45470;-72
2023/05/06 04:46:24;;;;;;;;;8.00;8.00;;;;;15.59;91.14;100659.56;5074512;28;45721;-73
2023/05/06 04:48:49;;;;;;;;;7.75;7.75;;;;;15.63;90.83;100664.59;5074873;28;45656;-75
2023/05/06 04:51:14;;;;;;;;;6.50;6.50;;;;;15.61;90.85;100661.19;5074028;27;46558;-73
2023/05/06 04:53:40;;;;;;;;;8.25;8.25;;;;;15.65;90.45;100667.16;5074203;28;45248;-72
2023/05/06 04:56:06;;;;;;;;;8.75;8.75;;;;;15.63;90.69;100659.28;5074261;28;45295;-71
2023/05/06 04:58:31;;;;;;;;;9.00;9.00;;;;;15.71;90.98;100666.78;5074241;28;45284;-74
2023/05/06 05:00:56;;;;;;;;;9.00;9.00;;;;;15.70;90.86;100670.38;5073838;28;45347;-72
2023/05/06 05:03:22;;;;;;;;;19.00;18.50;;;;;15.73;90.22;100670.19;5055733;28;45346;-73
2023/05/06 05:05:47;;;;;;;;;10.25;10.25;;;;;15.73;90.25;100664.03;5074115;28;45477;-73
2023/05/06 05:08:13;;;;;;;;;6.75;6.75;;;;;15.74;90.12;100671.91;5074071;28;45680;-72
2023/05/06 05:10:44;;;;;;;;;9.75;9.75;;;;;15.77;90.35;100677.03;5073535;28;46057;-72
2023/05/06 05:13:09;;;;;;;;;9.25;9.25;;;;;15.77;90.28;100673.50;5073544;27;45262;-71
2023/05/06 05:15:36;;;;;;;;;21.00;21.00;;;;;15.80;90.23;100681.28;5073373;28;45320;-72
2023/05/06 05:18:01;;;;;;;;;16.75;16.75;;;;;15.85;90.37;100687.16;5076296;28;45282;-71
2023/05/06 05:20:27;;;;;;;;;4.25;4.25;;;;;15.88;90.25;100688.81;5076404;28;59802;-72
2023/05/06 05:22:52;;;;;;;;;9.00;9.00;;;;;15.90;90.19;100687.78;5058873;28;45828;-75
2023/05/06 05:25:17;;;;;;;;;9.75;9.75;;;;;15.95;89.88;100699.91;5077460;28;45351;-72
2023/05/06 05:27:43;;;;;;;;;9.00;9.00;;;;;15.97;89.73;100696.22;5077720;27;45514;-74
2023/05/06 05:30:08;;;;;;;;;11.25;11.25;;;;;15.96;89.12;100697.16;5076857;28;46278;-74
2023/05/06 05:32:34;;;;;;;;;9.00;9.00;;;;;15.96;89.19;100691.84;5077192;27;46014;-73
2023/05/06 05:34:59;;;;;;;;;10.75;10.75;;;;;16.02;88.87;100706.56;5076610;28;51956;-70
2023/05/06 05:37:24;;;;;;;;;11.25;11.25;;;;;16.03;88.83;100703.78;5077149;28;45486;-71
2023/05/06 05:39:50;;;;;;;;;10.25;10.25;;;;;15.99;88.39;100696.97;5076960;27;45441;-73
2023/05/06 05:42:15;;;;;;;;;11.50;11.00;;;;;16.08;88.70;100713.25;5076775;27;45401;-73
2023/05/06 05:44:41;;;;;;;;;10.50;10.50;;;;;16.09;88.63;100709.66;5076679;28;45408;-75
2023/05/06 05:47:06;;;;;;;;;14.25;14.25;;;;;16.09;88.55;100710.53;5076794;28;45657;-75
2023/05/06 05:49:31;;;;;;;;;11.75;11.75;;;;;16.09;88.88;100701.69;5076150;27;47232;-74
2023/05/06 05:51:57;;;;;;;;;13.00;13.00;;;;;16.12;88.78;100707.69;5076469;28;45390;-71
2023/05/06 05:54:22;;;;;;;;;12.50;12.50;;;;;16.15;88.80;100706.63;5077072;27;45327;-73
2023/05/06 05:56:49;;;;;;;;;14.25;13.00;;;;;16.18;88.97;100698.47;5076852;27;45281;-71
2023/05/06 05:59:14;;;;;;;;;13.00;13.00;;;;;16.25;88.31;100706.94;5076307;28;46254;-74
2023/05/06 06:01:39;;;;;;;;;13.50;13.50;;;;;16.30;88.70;100710.16;5076146;28;45231;-71
2023/05/06 06:04:05;;;;;;;;;13.50;13.50;;;;;16.34;89.06;100711.66;5076223;28;45322;-73
2023/05/06 06:06:30;;;;;;;;;11.00;11.00;;;;;16.41;88.68;100715.63;5076611;27;45367;-73
2023/05/06 06:08:57;;;;;;;;;10.00;10.00;;;;;16.43;88.17;100705.78;5058136;28;46961;-74
2023/05/06 06:11:24;;;;;;;;;10.00;10.00;;;;;16.47;87.75;100714.41;5076585;28;45232;-75
2023/05/06 06:13:49;;;;;;;;;11.00;11.00;;;;;16.52;87.58;100714.09;5076248;28;45295;-72
2023/05/06 06:16:15;;;;;;;;;10.75;10.75;;;;;16.55;87.32;100721.88;5076367;28;45252;-72
2023/05/06 06:18:40;;;;;;;;;12.50;12.50;;;;;16.54;87.25;100720.16;5075898;27;45445;-76
2023/05/06 06:21:05;;;;;;;;;12.50;12.50;;;;;16.54;87.60;100706.91;5075897;27;45257;-74
2023/05/06 06:23:31;;;;;;;;;12.75;12.75;;;;;16.52;87.38;100725.59;5075991;28;45390;-71
2023/05/06 06:25:57;;;;;;;;;11.50;11.50;;;;;16.59;87.10;100726.91;5076683;28;45481;-73
2023/05/06 06:28:22;;;;;;;;;10.75;10.75;;;;;16.60;86.81;100733.06;5075056;27;45594;-71
2023/05/06 06:30:48;;;;;;;;;12.75;12.75;;;;;16.62;87.31;100729.38;5075796;27;45454;-72
2023/05/06 06:33:13;;;;;;;;;11.25;11.25;;;;;16.52;86.93;100701.69;5075810;28;45328;-73
2023/05/06 06:35:38;;;;;;;;;14.00;14.00;;;;;16.71;86.70;100719.94;5075579;28;45412;-70
2023/05/06 06:38:04;;;;;;;;;11.00;11.00;;;;;16.77;86.11;100716.91;5075644;28;45399;-74
2023/05/06 06:40:29;;;;;;;;;12.00;12.00;;;;;16.87;85.95;100729.59;5075510;27;47753;-72
2023/05/06 06:42:54;;;;;;;;;24.75;24.75;;;;;16.96;85.51;100725.50;5075671;28;45396;-74
2023/05/06 06:45:20;;;;;;;;;14.75;14.75;;;;;17.07;85.12;100725.69;5075820;28;45599;-73
2023/05/06 06:47:45;;;;;;;;;11.75;11.75;;;;;17.15;84.13;100727.84;5075401;28;46151;-72
2023/05/06 06:50:11;;;;;;;;;10.75;10.75;;;;;17.25;83.65;100722.75;5075379;28;45225;-72
2023/05/06 06:52:36;;;;;;;;;11.50;11.50;;;;;17.34;83.54;100722.16;5075828;28;45324;-74
2023/05/06 06:55:02;;;;;;;;;10.25;10.25;;;;;17.38;83.49;100713.88;5075820;28;45332;-72
2023/05/06 06:57:27;;;;;;;;;12.50;12.00;;;;;17.44;83.05;100706.44;5057162;28;47041;-71
2023/05/06 06:59:53;;;;;;;;;11.00;11.00;;;;;17.56;82.53;100715.41;5073863;28;45798;-71
2023/05/06 07:02:19;;;;;;;;;11.75;11.75;;;;;17.67;81.79;100718.19;5075099;28;45463;-73
2023/05/06 07:04:45;;;;;;;;;11.00;11.00;;;;;17.76;81.48;100727.34;5075417;27;45305;-73
2023/05/06 07:07:10;;;;;;;;;9.75;9.75;;;;;17.86;80.84;100728.41;5075071;27;45902;-74
2023/05/06 07:09:36;;;;;;;;;10.25;10.25;;;;;17.92;80.17;100735.97;5057133;28;45875;-74
2023/05/06 07:12:01;;;;;;;;;10.25;10.25;;;;;17.98;79.80;100731.19;5057441;28;45284;-74
2023/05/06 07:14:26;;;;;;;;;10.50;10.50;;;;;18.03;79.52;100737.09;5074921;28;45559;-75
2023/05/06 07:16:52;;;;;;;;;9.50;9.50;;;;;18.09;79.14;100736.66;5075130;28;46556;-75
2023/05/06 07:19:17;;;;;;;;;10.00;10.00;;;;;18.14;78.78;100731.88;5056839;27;45477;-75
2023/05/06 07:21:42;;;;;;;;;12.25;12.25;;;;;18.21;77.99;100735.81;5074755;27;45235;-71
2023/05/06 07:24:08;;;;;;;;;10.75;10.75;;;;;18.27;77.81;100737.16;5075487;28;45329;-73
2023/05/06 07:26:36;;;;;;;;;11.50;11.50;;;;;18.37;77.54;100732.91;5056770;28;46545;-72
2023/05/06 07:29:03;;;;;;;;;12.25;12.25;;;;;18.45;77.08;100729.69;5074779;28;45322;-71
2023/05/06 07:31:28;;;;;;;;;10.25;10.25;;;;;18.53;76.84;100731.81;5075116;27;45430;-74
2023/05/06 07:33:54;;;;;;;;;10.00;10.00;;;;;18.60;76.46;100722.44;5074577;27;45527;-75
2023/05/06 07:36:19;;;;;;;;;8.75;8.75;;;;;18.75;76.31;100739.09;5074506;28;45287;-76
2023/05/06 07:38:44;;;;;;;;;12.75;12.75;;;;;18.82;75.73;100740.38;5074611;28;45459;-75
2023/05/06 07:41:10;;;;;;;;;8.00;8.00;;;;;18.88;74.71;100738.22;5074016;28;45879;-75
2023/05/06 07:43:35;;;;;;;;;13.00;13.00;;;;;18.83;74.86;100725.25;5074591;28;45546;-74
2023/05/06 07:46:03;;;;;;;;;19.00;19.00;;;;;19.01;75.17;100741.72;5075107;28;45504;-73
2023/05/06 07:48:29;;;;;;;;;13.00;13.00;;;;;19.05;74.37;100734.34;5074898;27;45416;-76
2023/05/06 07:50:54;;;;;;;;;9.25;9.25;;;;;19.10;73.88;100741.06;5074632;28;45313;-73
2023/05/06 07:53:20;;;;;;;;;10.00;10.00;;;;;19.16;73.75;100738.91;5074864;27;45462;-73
2023/05/06 07:55:45;;;;;;;;;8.50;8.50;;;;;19.16;72.92;100738.91;5074936;28;45316;-73
2023/05/06 07:58:11;;;;;;;;;8.00;8.00;;;;;19.20;72.09;100746.56;5074769;27;45266;-74
2023/05/06 08:00:36;;;;;;;;;7.00;7.00;;;;;19.24;72.07;100749.84;5075084;28;45347;-74
2023/05/06 08:03:01;;;;;;;;;10.25;10.25;;;;;19.27;71.83;100762.97;5075222;27;45253;-75
2023/05/06 08:05:26;;;;;;;;;8.00;8.00;;;;;19.33;71.76;100762.50;5074318;28;51005;-74
2023/05/06 08:07:52;;;;;;;;;10.25;10.25;;;;;19.41;71.69;100760.13;5074555;27;45311;-73
2023/05/06 08:10:18;;;;;;;;;10.50;10.50;;;;;19.49;70.90;100750.69;5074718;28;45339;-76
2023/05/06 08:12:44;;;;;;;;;6.50;6.50;;;;;19.56;70.04;100750.09;5074724;28;45406;-75
2023/05/06 08:15:10;;;;;;;;;8.00;8.00;;;;;19.65;69.45;100753.06;5073989;28;46593;-75
2023/05/06 08:17:35;;;;;;;;;7.00;7.00;;;;;19.70;69.45;100757.06;5074191;28;45399;-70
2023/05/06 08:20:00;;;;;;;;;9.00;9.00;;;;;19.81;68.74;100760.72;5074347;28;45350;-74
2023/05/06 08:22:26;;;;;;;;;8.00;8.00;;;;;19.83;68.03;100751.63;5074777;27;45622;-75
2023/05/06 08:24:51;;;;;;;;;7.00;7.00;;;;;19.83;67.48;100756.97;5073819;28;46288;-74
2023/05/06 08:27:16;;;;;;;;;6.00;6.00;;;;;19.93;67.38;100757.13;5073957;28;45442;-73
2023/05/06 08:29:42;;;;;;;;;6.00;6.00;;;;;20.03;67.20;100759.09;5055787;28;45434;-74
2023/05/06 08:32:07;;;;;;;;;6.00;6.00;;;;;20.08;66.18;100754.25;5056002;28;45307;-72
2023/05/06 08:34:33;;;;;;;;;6.50;6.50;;;;;20.13;66.30;100752.94;5074258;27;46295;-74
2023/05/06 08:36:59;;;;;;;;;4.25;4.25;;;;;20.18;65.81;100749.91;5074063;28;45340;-76
2023/05/06 08:39:24;;;;;;;;;5.25;5.25;;;;;20.21;64.84;100730.13;5073916;28;45208;-73
2023/05/06 08:41:53;;;;;;;;;3.75;3.75;;;;;20.28;65.01;100744.69;5074359;27;45339;-75
2023/05/06 08:44:22;;;;;;;;;7.75;7.75;;;;;20.32;64.56;100747.97;5055506;28;47042;-70
2023/05/06 08:46:48;;;;;;;;;5.75;5.75;;;;;20.42;64.29;100756.97;5073870;28;45541;-76
2023/05/06 08:49:13;;;;;;;;;6.50;6.50;;;;;20.49;64.02;100755.50;5073997;28;45250;-73
2023/05/06 08:51:42;;;;;;;;;5.25;5.25;;;;;20.53;63.81;100745.41;5074736;28;45405;-72
2023/05/06 08:54:09;;;;;;;;;4.00;4.00;;;;;20.52;63.21;100731.19;5077125;28;46347;-73
2023/05/06 08:56:35;;;;;;;;;4.00;4.00;;;;;20.69;62.72;100745.03;5059275;28;45432;-73
2023/05/06 08:59:01;;;;;;;;;5.75;5.75;;;;;20.72;62.20;100756.34;5059115;28;45356;-71
2023/05/06 09:01:27;;;;;;;;;4.75;4.75;;;;;20.72;62.10;100748.31;5059163;27;45369;-72
2023/05/06 09:03:58;;;;;;;;;3.75;3.75;;;;;20.81;61.75;100746.75;5077283;27;45418;-71
2023/05/06 09:06:24;;;;;;;;;5.50;5.50;;;;;20.84;62.34;100748.31;5075683;27;45874;-71
2023/05/06 09:08:49;;;;;;;;;6.25;6.25;;;;;20.89;62.10;100753.28;5077214;28;45410;-73
2023/05/06 09:11:37;;;;;;;;;7.00;7.00;;;;;20.96;61.47;100746.47;5077640;27;45305;-72
2023/05/06 09:14:14;;;;;;;;;19.75;19.75;;;;;21.01;61.58;100749.59;5076994;27;47399;-72
2023/05/06 09:16:42;;;;;;;;;6.00;6.00;;;;;21.03;61.69;100734.28;5077034;27;45338;-72
2023/05/06 09:19:08;;;;;;;;;5.00;5.00;;;;;21.24;61.27;100752.25;5077102;28;45384;-75
2023/05/06 09:21:37;;;;;;;;;5.25;5.25;;;;;21.31;60.99;100751.56;5077857;27;45335;-73
2023/05/06 09:24:05;;;;;;;;;7.00;7.00;;;;;21.32;60.82;100752.44;5077483;28;45796;-72
2023/05/06 09:26:32;;;;;;;;;8.75;8.75;;;;;21.36;61.02;100751.22;5076928;28;45299;-71
2023/05/06 09:28:58;;;;;;;;;5.00;5.00;;;;;21.41;60.44;100743.66;5077006;27;45244;-75
2023/05/06 09:31:25;;;;;;;;;4.50;4.50;;;;;21.50;60.33;100744.69;5076945;28;45283;-73
2023/05/06 09:33:51;;;;;;;;;4.00;4.00;;;;;21.60;60.02;100739.41;5076779;27;46133;-74
2023/05/06 09:36:17;;;;;;;;;2.25;2.25;;;;;21.69;59.33;100746.69;5077179;27;45257;-74
2023/05/06 09:38:42;;;;;;;;;5.00;5.00;;;;;21.68;59.59;100742.31;5077218;28;45296;-72
2023/05/06 09:41:08;;;;;;;;;4.50;4.50;;;;;21.68;59.33;100742.31;5077967;27;45322;-76
2023/05/06 09:43:36;;;;;;;;;5.00;5.00;;;;;21.67;58.84;100743.31;5058938;28;46983;-75
2023/05/06 09:46:02;;;;;;;;;4.00;4.00;;;;;21.68;58.39;100733.44;5077034;28;45185;-76
2023/05/06 09:48:29;;;;;;;;;6.00;6.00;;;;;21.76;58.76;100741.69;5058643;28;45332;-75
2023/05/06 09:50:54;;;;;;;;;3.00;3.00;;;;;21.87;58.53;100732.72;5058555;28;45394;-74
2023/05/06 09:53:21;;;;;;;;;6.25;6.25;;;;;21.96;58.19;100739.94;5076076;27;46348;-72
2023/05/06 09:55:48;;;;;;;;;6.75;6.75;;;;;22.02;58.29;100739.41;5076043;28;45437;-72
2023/05/06 09:58:15;;;;;;;;;6.50;6.50;;;;;22.09;57.42;100726.34;5076161;28;45230;-74
2023/05/06 10:00:42;;;;;;;;;4.00;4.00;;;;;22.09;57.40;100706.75;5076534;27;45281;-74
2023/05/06 10:03:07;;;;;;;;;6.00;5.25;;;;;22.28;57.32;100725.63;5076462;27;45290;-75
2023/05/06 10:05:35;;;;;;;;;26.50;26.25;;;;;22.39;56.58;100724.66;5076453;27;45343;-72
2023/05/06 10:08:03;;;;;;;;;8.25;8.25;;;;;22.46;56.44;100722.31;5076638;27;45432;-74
2023/05/06 10:10:28;;;;;;;;;7.00;7.00;;;;;22.50;56.07;100723.75;5076943;27;45223;-75
2023/05/06 10:12:54;;;;;;;;;3.50;3.50;;;;;22.56;55.31;100715.16;5076790;27;45342;-74
2023/05/06 10:15:20;;;;;;;;;4.50;4.50;;;;;22.61;55.02;100726.31;5076657;28;45378;-74
2023/05/06 10:17:49;;;;;;;;;5.00;5.00;;;;;22.63;54.74;100720.78;5077015;27;45388;-73
2023/05/06 10:20:16;;;;;;;;;7.00;7.00;;;;;22.69;54.48;100714.06;5076634;27;45307;-74
2023/05/06 10:23:07;;;;;;;;;2.75;2.75;;;;;22.77;54.11;100716.88;5076218;27;46586;-73
2023/05/06 10:25:36;;;;;;;;;4.00;4.00;;;;;22.79;53.81;100709.56;5076797;28;45422;-73
2023/05/06 10:28:06;;;;;;;;;2.50;2.50;;;;;22.90;53.43;100717.47;5075232;27;45349;-73
2023/05/06 10:30:33;;;;;;;;;4.00;4.00;;;;;22.79;53.78;100711.38;5058533;28;45315;-76
2023/05/06 10:33:04;;;;;;;;;3.25;3.25;;;;;22.75;53.23;100716.19;5076352;27;45491;-73
2023/05/06 10:35:36;;;;;;;;;6.25;6.25;;;;;22.74;53.71;100709.13;5076043;28;45185;-73
2023/05/06 10:38:03;;;;;;;;;5.25;5.25;;;;;22.74;53.78;100706.44;5076209;28;45320;-74
2023/05/06 10:40:30;;;;;;;;;4.00;4.00;;;;;22.82;53.80;100714.63;5074964;28;45441;-74
2023/05/06 10:43:29;;;;;;;;;7.25;7.25;;;;;22.91;53.06;100711.13;5075476;27;45413;-74
2023/05/06 10:46:03;;;;;;;;;4.25;4.25;;;;;22.96;53.17;100704.50;5076083;27;45453;-72
2023/05/06 10:48:30;;;;;;;;;9.75;8.25;;;;;23.02;52.62;100707.47;5076761;28;45240;-72
2023/05/06 10:51:20;;;;;;;;;5.25;5.25;;;;;23.06;52.75;100705.34;5076264;27;45572;-77
2023/05/06 10:53:58;;;;;;;;;9.75;9.25;;;;;23.14;53.09;100693.91;5075528;27;46163;-73
2023/05/06 10:56:24;;;;;;;;;6.00;6.00;;;;;23.28;52.63;100706.06;5075927;27;45446;-74
2023/05/06 10:58:50;;;;;;;;;4.75;4.75;;;;;23.33;52.36;100695.78;5075723;27;45366;-73
2023/05/06 11:01:19;;;;;;;;;6.00;6.00;;;;;23.44;52.84;100692.09;5075735;27;45388;-72
2023/05/06 11:03:45;;;;;;;;;6.25;6.25;;;;;23.50;52.52;100688.81;5056619;28;47842;-74
2023/05/06 11:06:50;;;;;;;;;9.00;9.00;;;;;23.56;52.12;100700.84;5057974;28;45255;-75
2023/05/06 11:09:21;;;;;;;;;5.25;5.25;;;;;23.58;52.08;100693.50;5075471;28;45221;-75
2023/05/06 11:12:01;;;;;;;;;6.75;6.75;;;;;23.54;51.08;100676.81;5056799;28;45542;-74
2023/05/06 11:14:34;;;;;;;;;7.00;7.00;;;;;23.54;51.54;100687.56;5074348;28;45399;-74
2023/05/06 11:17:02;;;;;;;;;7.00;7.00;;;;;23.53;51.23;100685.03;5075417;27;45296;-75
2023/05/06 11:19:33;;;;;;;;;6.75;6.75;;;;;23.58;51.45;100680.91;5057518;28;45439;-75